Aeroporto :
LOGIN :

Iscrizione | Disclaimer

   EN    FR    IT 

 










Sommario :    VFR   VFR Marginale   IFR   IFR Intensivo   IFR Molto Intensivo
Visibilità : 
Base nubi : 
>= 8 km
>= 3000ft
5 / 8 km
1000 / 3000 ft
1500m / 5 km
500 / 1000 ft
800 / 1500m
200 / 500 ft
< 800m
< 200 ft
Simboli :   Temporali  Nebbia  Neve Forte  Precipitazioni Forti  Vento > 20 kt
SIGMETs :   Varie  Temporali  Ghiacco  Turbolenza  Onda orograficha  Ceneri Vulcaniche






- Altitudine del aeroporto : 659 ft
- Codice IATA : LYN


LFLY - Lyon Bron

ULTIMO METAR :
  • 030100Z AUTO 20005KT CAVOK 18/12 Q1011 NOSIG

METARs OBSOLETI :
  • 030030Z AUTO 20005KT CAVOK 18/12 Q1011 NOSIG
  • 030000Z AUTO 19005KT CAVOK 18/12 Q1011 NOSIG
  • 022330Z AUTO 18003KT CAVOK 19/12 Q1011 NOSIG
  • 022300Z AUTO 19003KT CAVOK 19/12 Q1012 BECMG FEW060TCU BKN080
  • 022230Z AUTO 19003KT CAVOK 19/12 Q1012 BECMG FEW060TCU BKN080

TAF TAF LFLY
Valido dal 03 a 00 ore il 04 a 00 ore UTC


022300Z 0300/0324 18006KT CAVOK
BECMG 0308/0310 FEW060TCU
TEMPO 0311/0319 VRB15G25KT 4000 SHRA BKN065TCU
PROB40
TEMPO 0311/0316 VRB20G35KT 2000 TSRA SCT055CB
PROB30
TEMPO 0312/0315 1000 TSGR
BECMG 0318/0320 4000 RA BKN013 BKN050
ATIS : +33 4 72 15 87 96



MetMap, La meteo Aeronautica in un colpo d'occhio ! - Copyright ORBIFLY Dicembre 2007 - Disclaimer

ORBIFLY MET'MAP TEAM :

Programmazione e sviluppo : Alexandra Zaïnal
Concezione : Baudouin d'Aumeries
Aiuto per la programmazione : Marc-Olivier Méhu
Supporto tecnico e logistico : Manuel Goepfert
Aiuto per la traduzione : Arnaldo La Scala

Contatto : metmap@orbifly.com




FONTI E CREDITI :

   NOAA